createdAt,value
2022-08-27T00:02:24.992Z,63.86
2022-08-27T00:05:27.937Z,63.83
2022-08-27T00:08:31.248Z,63.81
2022-08-27T00:11:37.416Z,63.93
2022-08-27T00:14:40.548Z,64.33
2022-08-27T00:17:45.578Z,64.42
2022-08-27T00:20:48.501Z,64.21
2022-08-27T00:23:51.433Z,64.63
2022-08-27T00:26:54.335Z,64.43
2022-08-27T00:29:58.063Z,63.99
2022-08-27T00:33:01.199Z,63.92
2022-08-27T00:36:05.180Z,63.92
2022-08-27T00:39:08.083Z,63.64
2022-08-27T00:42:11.462Z,63.43
2022-08-27T00:45:17.348Z,63.50
2022-08-27T00:48:31.847Z,63.44
2022-08-27T00:51:37.178Z,63.22
2022-08-27T00:54:40.336Z,63.08
2022-08-27T00:57:44.102Z,63.06
2022-08-27T01:00:47.897Z,63.16
2022-08-27T01:03:55.534Z,63.07
2022-08-27T01:06:59.940Z,63.12
2022-08-27T01:10:07.402Z,63.39
2022-08-27T01:13:17.369Z,63.43
2022-08-27T01:16:28.882Z,63.65
2022-08-27T01:20:00.688Z,63.73
2022-08-27T01:23:20.809Z,64.09
2022-08-27T01:26:25.281Z,65.32
2022-08-27T01:29:28.718Z,65.33
2022-08-27T01:32:34.674Z,65.07
2022-08-27T01:35:40.199Z,66.09
2022-08-27T01:38:43.321Z,65.95
2022-08-27T01:41:46.907Z,65.57
2022-08-27T01:44:59.891Z,65.65
2022-08-27T01:48:03.399Z,65.36
2022-08-27T01:51:06.903Z,64.97
2022-08-27T01:54:11.088Z,64.77
2022-08-27T01:57:14.996Z,64.55
2022-08-27T02:00:22.974Z,64.38
2022-08-27T02:03:27.202Z,64.44
2022-08-27T02:06:32.292Z,64.22
2022-08-27T02:09:35.370Z,63.97
2022-08-27T02:12:38.505Z,63.78
2022-08-27T02:15:42.952Z,63.44
2022-08-27T02:18:45.949Z,63.26
2022-08-27T02:21:50.190Z,63.34
2022-08-27T02:24:54.312Z,63.33
2022-08-27T02:28:00.411Z,63.22
2022-08-27T02:31:05.350Z,63.13
2022-08-27T02:34:09.943Z,63.39
2022-08-27T02:37:12.733Z,63.27
2022-08-27T02:40:17.970Z,63.21
2022-08-27T02:43:25.231Z,63.09
2022-08-27T02:46:29.419Z,63.06
2022-08-27T02:49:33.009Z,63.00
2022-08-27T02:52:37.007Z,63.09
2022-08-27T02:55:40.934Z,63.38
2022-08-27T02:58:43.849Z,63.49
2022-08-27T03:01:47.456Z,63.34
2022-08-27T03:04:51.481Z,63.23
2022-08-27T03:07:54.791Z,62.87
2022-08-27T03:10:58.152Z,62.67
2022-08-27T03:14:01.126Z,62.55
2022-08-27T03:17:23.212Z,62.64
2022-08-27T03:20:27.478Z,62.66
2022-08-27T03:23:35.763Z,62.57
2022-08-27T03:26:39.619Z,62.61
2022-08-27T03:29:42.555Z,62.66
2022-08-27T03:32:45.473Z,62.62
2022-08-27T03:35:51.724Z,62.49
2022-08-27T03:38:55.187Z,62.40
2022-08-27T03:41:59.978Z,62.40
2022-08-27T03:45:04.097Z,62.57
2022-08-27T03:48:07.461Z,62.83
2022-08-27T03:51:13.597Z,62.78
2022-08-27T03:54:16.990Z,62.95
2022-08-27T03:57:21.833Z,63.20
2022-08-27T04:00:26.139Z,63.02
2022-08-27T04:03:30.264Z,63.41
2022-08-27T04:06:36.467Z,63.44
2022-08-27T04:09:39.483Z,64.20
2022-08-27T04:12:43.851Z,64.22
2022-08-27T04:15:48.987Z,64.43
2022-08-27T04:18:52.188Z,64.83
2022-08-27T04:22:00.417Z,64.97
2022-08-27T04:25:04.469Z,66.25
2022-08-27T04:28:15.712Z,66.18
2022-08-27T04:31:21.417Z,66.39
2022-08-27T04:34:25.006Z,66.32
2022-08-27T04:37:34.992Z,66.74
2022-08-27T04:40:57.804Z,66.91
2022-08-27T04:44:07.771Z,66.99
2022-08-27T04:47:12.615Z,67.46
2022-08-27T04:50:15.943Z,68.44
2022-08-27T04:53:19.550Z,69.10
2022-08-27T04:56:25.728Z,69.40
2022-08-27T04:59:33.522Z,68.74
2022-08-27T05:02:36.658Z,68.14
2022-08-27T05:05:42.832Z,68.55
2022-08-27T05:08:46.333Z,67.97
2022-08-27T05:11:49.366Z,67.97
2022-08-27T05:14:54.876Z,67.81
2022-08-27T05:18:00.882Z,67.52
2022-08-27T05:21:32.438Z,68.82
2022-08-27T05:24:35.539Z,68.94
2022-08-27T05:27:38.423Z,68.88
2022-08-27T05:30:44.838Z,68.46
2022-08-27T05:33:52.372Z,68.19
2022-08-27T05:37:25.353Z,68.05
2022-08-27T05:40:29.117Z,67.88
2022-08-27T05:43:40.663Z,67.65
2022-08-27T05:46:43.997Z,67.84
2022-08-27T05:49:48.280Z,67.96
2022-08-27T05:52:52.760Z,67.82
2022-08-27T05:55:56.336Z,68.18
2022-08-27T05:59:18.617Z,68.06
2022-08-27T06:02:23.103Z,68.07
2022-08-27T06:05:26.943Z,67.94
2022-08-27T06:08:31.680Z,68.35
2022-08-27T06:11:35.130Z,68.72
2022-08-27T06:14:38.594Z,68.62
2022-08-27T06:17:41.895Z,68.29
2022-08-27T06:20:44.832Z,68.31
2022-08-27T06:23:48.312Z,68.44
2022-08-27T06:26:52.348Z,68.59
2022-08-27T06:29:55.397Z,68.43
2022-08-27T06:32:58.294Z,68.70
2022-08-27T06:36:04.084Z,69.16
2022-08-27T06:39:08.864Z,69.46
2022-08-27T06:42:13.573Z,69.47
2022-08-27T06:45:16.979Z,70.03
2022-08-27T06:48:20.760Z,70.22
2022-08-27T06:51:27.530Z,70.73
2022-08-27T06:55:39.270Z,71.39
2022-08-27T06:58:42.474Z,70.89
2022-08-27T07:01:51.608Z,71.15
2022-08-27T07:04:55.477Z,71.21
2022-08-27T07:08:04.960Z,70.84
2022-08-27T07:11:11.207Z,70.52
2022-08-27T07:14:14.240Z,70.51
2022-08-27T07:17:17.826Z,70.11
2022-08-27T07:20:21.623Z,69.88
2022-08-27T07:23:25.616Z,69.55
2022-08-27T07:26:29.275Z,69.29
2022-08-27T07:29:33.361Z,69.39
2022-08-27T07:32:40.572Z,69.30
2022-08-27T07:35:44.828Z,69.27
2022-08-27T07:38:59.282Z,69.06
2022-08-27T07:45:56.553Z,68.77
2022-08-27T07:48:59.558Z,68.66
2022-08-27T07:52:07.885Z,68.56
2022-08-27T07:55:14.910Z,68.24
2022-08-27T07:58:18.744Z,68.22
2022-08-27T08:01:24.125Z,68.09
2022-08-27T08:04:27.755Z,68.07
2022-08-27T08:07:31.261Z,68.02
2022-08-27T08:10:37.086Z,67.81
2022-08-27T08:13:40.791Z,67.76
2022-08-27T08:16:44.204Z,67.70
2022-08-27T08:20:08.508Z,67.69
2022-08-27T08:23:13.764Z,67.60
2022-08-27T08:26:17.052Z,67.43
2022-08-27T08:29:20.115Z,67.02
2022-08-27T08:32:23.295Z,66.75
2022-08-27T08:35:27.714Z,66.58
2022-08-27T08:38:39.674Z,66.61
2022-08-27T08:41:48.742Z,66.74
2022-08-27T08:44:54.368Z,66.54
2022-08-27T08:48:13.976Z,66.13
2022-08-27T08:51:29.736Z,66.22
2022-08-27T08:54:35.035Z,65.93
2022-08-27T08:57:47.986Z,65.46
2022-08-27T09:00:56.842Z,64.43
2022-08-27T09:04:04.079Z,64.84
2022-08-27T09:07:26.559Z,64.63
2022-08-27T09:10:48.870Z,65.07
2022-08-27T09:13:55.934Z,65.21
2022-08-27T09:17:03.283Z,65.57
2022-08-27T09:20:18.678Z,65.78
2022-08-27T09:23:26.349Z,65.76
2022-08-27T09:26:32.588Z,66.38
2022-08-27T09:29:38.237Z,66.52
2022-08-27T09:32:41.624Z,66.64
2022-08-27T09:35:47.385Z,66.83
2022-08-27T09:39:04.455Z,67.26
2022-08-27T09:42:08.111Z,67.64
2022-08-27T09:45:22.147Z,67.62
2022-08-27T09:48:37.623Z,68.01
2022-08-27T09:51:44.181Z,67.43
2022-08-27T09:54:48.584Z,67.02
2022-08-27T09:57:51.869Z,66.63
2022-08-27T10:01:16.254Z,66.19
2022-08-27T10:04:27.415Z,65.92
2022-08-27T10:07:38.643Z,65.44
2022-08-27T10:11:01.165Z,65.56
2022-08-27T10:14:13.451Z,65.38
2022-08-27T10:17:33.466Z,65.56
2022-08-27T10:20:40.476Z,65.12
2022-08-27T10:24:21.310Z,64.86
2022-08-27T10:27:45.059Z,64.46
2022-08-27T10:31:09.828Z,63.65
2022-08-27T10:34:48.309Z,62.33
2022-08-27T10:38:03.695Z,62.79
2022-08-27T10:42:03.738Z,63.25
2022-08-27T10:45:31.345Z,63.32
2022-08-27T10:48:39.874Z,62.80
2022-08-27T10:51:59.318Z,62.81
2022-08-27T10:55:23.088Z,63.26
2022-08-27T10:58:38.318Z,63.55
2022-08-27T11:01:52.560Z,63.38
2022-08-27T11:05:02.477Z,63.40
2022-08-27T11:08:08.117Z,63.35
2022-08-27T11:15:27.283Z,63.62
2022-08-27T11:18:47.034Z,64.07
2022-08-27T11:22:01.671Z,64.41
2022-08-27T11:25:23.930Z,64.34
2022-08-27T11:28:32.537Z,64.36
2022-08-27T11:31:56.350Z,64.52
2022-08-27T11:35:06.903Z,64.64
2022-08-27T11:38:52.058Z,64.59
2022-08-27T11:42:10.280Z,64.09
2022-08-27T11:45:35.012Z,63.56
2022-08-27T11:48:55.421Z,63.60
2022-08-27T11:52:07.743Z,63.80
2022-08-27T11:55:20.303Z,63.85
2022-08-27T11:58:31.416Z,63.99
2022-08-27T12:01:36.804Z,64.24
2022-08-27T12:04:42.502Z,64.71
2022-08-27T12:07:49.274Z,64.93
2022-08-27T12:11:09.850Z,65.10
2022-08-27T12:14:33.200Z,65.55
2022-08-27T12:18:10.970Z,66.01
2022-08-27T12:21:30.815Z,65.96
2022-08-27T12:24:50.220Z,65.68
2022-08-27T12:27:59.914Z,65.50
2022-08-27T12:31:07.000Z,64.49
2022-08-27T12:34:20.872Z,64.04
2022-08-27T12:37:31.194Z,63.57
2022-08-27T12:40:40.187Z,62.46
2022-08-27T12:43:44.321Z,62.81
2022-08-27T12:47:10.708Z,62.57
2022-08-27T12:50:25.984Z,62.39
2022-08-27T12:53:44.101Z,62.00
2022-08-27T12:57:11.224Z,61.94
2022-08-27T13:00:22.869Z,61.61
2022-08-27T13:03:45.857Z,61.35
2022-08-27T13:06:49.922Z,61.48
2022-08-27T13:09:56.897Z,61.49
2022-08-27T13:13:12.338Z,61.40
2022-08-27T13:16:19.314Z,60.73
2022-08-27T13:19:59.239Z,60.06
2022-08-27T13:23:06.181Z,60.03
2022-08-27T13:26:12.529Z,60.75
2022-08-27T13:29:16.743Z,59.55
2022-08-27T13:32:20.968Z,59.76
2022-08-27T13:35:25.892Z,58.88
2022-08-27T13:38:33.582Z,59.46
2022-08-27T13:41:38.783Z,58.35
2022-08-27T13:44:44.516Z,57.51
2022-08-27T13:47:54.237Z,57.78
2022-08-27T13:50:59.884Z,57.49
2022-08-27T13:54:18.790Z,55.72
2022-08-27T13:57:30.393Z,55.12
2022-08-27T14:00:35.073Z,54.83
2022-08-27T14:03:48.824Z,55.27
2022-08-27T14:06:53.082Z,55.76
2022-08-27T14:10:02.385Z,55.53
2022-08-27T14:13:23.792Z,55.23
2022-08-27T14:16:31.667Z,56.03
2022-08-27T14:19:36.579Z,56.74
2022-08-27T14:22:48.368Z,57.46
2022-08-27T14:25:59.189Z,57.02
2022-08-27T14:29:02.500Z,57.51
2022-08-27T14:32:08.230Z,57.73
2022-08-27T14:35:12.879Z,56.72
2022-08-27T14:38:24.210Z,56.75
2022-08-27T14:41:28.134Z,56.53
2022-08-27T14:44:33.233Z,56.60
2022-08-27T14:47:41.926Z,57.02
2022-08-27T14:50:45.206Z,57.07
2022-08-27T14:53:48.555Z,56.79
2022-08-27T14:56:51.886Z,56.28
2022-08-27T14:59:54.964Z,56.46
2022-08-27T15:02:58.164Z,57.19
2022-08-27T15:06:02.087Z,57.12
2022-08-27T15:09:29.242Z,56.84
2022-08-27T15:12:56.749Z,57.00
2022-08-27T15:16:10.755Z,56.94
2022-08-27T15:19:15.663Z,56.71
2022-08-27T15:22:22.965Z,56.94
2022-08-27T15:25:27.020Z,57.00
2022-08-27T15:28:30.149Z,56.72
2022-08-27T15:31:33.210Z,57.01
2022-08-27T15:34:36.583Z,57.03
2022-08-27T15:37:41.223Z,56.62
2022-08-27T15:40:44.347Z,56.21
2022-08-27T15:43:48.315Z,56.17
2022-08-27T15:46:51.507Z,55.75
2022-08-27T15:49:54.378Z,55.85
2022-08-27T15:53:02.084Z,55.79
2022-08-27T15:56:08.148Z,56.31
2022-08-27T15:59:15.609Z,56.14
2022-08-27T16:02:23.257Z,55.62
2022-08-27T16:05:30.730Z,56.12
2022-08-27T16:08:36.709Z,55.73
2022-08-27T16:11:40.427Z,55.97
2022-08-27T16:14:43.269Z,56.00
2022-08-27T16:17:53.222Z,55.37
2022-08-27T16:20:58.559Z,55.76
2022-08-27T16:24:02.329Z,56.03
2022-08-27T16:27:05.456Z,56.16
2022-08-27T16:30:09.403Z,56.14
2022-08-27T16:33:13.932Z,56.19
2022-08-27T16:36:17.290Z,55.56
2022-08-27T16:39:20.325Z,55.97
2022-08-27T16:42:23.194Z,55.99
2022-08-27T16:45:26.586Z,55.97
2022-08-27T16:48:57.038Z,55.70
2022-08-27T16:52:07.008Z,56.09
2022-08-27T16:55:11.148Z,56.40
2022-08-27T16:58:27.278Z,56.31
2022-08-27T17:01:30.375Z,56.35
2022-08-27T17:04:35.511Z,56.57
2022-08-27T17:07:48.222Z,56.81
2022-08-27T17:10:54.248Z,57.20
2022-08-27T17:14:02.952Z,57.46
2022-08-27T17:17:06.620Z,57.51
2022-08-27T17:20:10.596Z,57.54
2022-08-27T17:23:21.887Z,57.94
2022-08-27T17:26:26.034Z,57.96
2022-08-27T17:29:30.354Z,58.01
2022-08-27T17:32:36.799Z,58.08
2022-08-27T17:35:39.874Z,58.34
2022-08-27T17:38:42.949Z,58.81
2022-08-27T17:41:48.786Z,59.21
2022-08-27T17:44:52.237Z,59.53
2022-08-27T17:47:55.407Z,60.23
2022-08-27T17:50:59.150Z,60.40
2022-08-27T17:54:03.646Z,60.35
2022-08-27T17:57:22.608Z,60.21
2022-08-27T18:00:26.258Z,61.26
2022-08-27T18:03:29.863Z,61.19
2022-08-27T18:06:47.874Z,61.01
2022-08-27T18:09:51.398Z,61.41
2022-08-27T18:12:56.275Z,61.75
2022-08-27T18:15:59.348Z,61.84
2022-08-27T18:19:07.027Z,61.42
2022-08-27T18:22:11.954Z,61.26
2022-08-27T18:25:18.490Z,61.39
2022-08-27T18:28:22.526Z,61.12
2022-08-27T18:31:31.831Z,61.26
2022-08-27T18:34:35.193Z,61.18
2022-08-27T18:37:38.192Z,61.08
2022-08-27T18:40:46.051Z,61.21
2022-08-27T18:43:50.045Z,61.24
2022-08-27T18:46:53.954Z,61.06
2022-08-27T18:49:57.526Z,61.28
2022-08-27T18:53:05.637Z,61.80
2022-08-27T18:56:16.608Z,62.55
2022-08-27T18:59:20.468Z,62.97
2022-08-27T19:02:24.065Z,63.64
2022-08-27T19:05:28.256Z,64.38
2022-08-27T19:08:33.373Z,65.53
2022-08-27T19:11:36.560Z,65.69
2022-08-27T19:14:40.111Z,67.11
2022-08-27T19:17:53.756Z,67.18
2022-08-27T19:20:57.149Z,67.17
2022-08-27T19:24:00.417Z,67.47
2022-08-27T19:27:04.315Z,66.83
2022-08-27T19:30:16.547Z,67.00
2022-08-27T19:33:19.534Z,67.05
2022-08-27T19:36:23.642Z,68.81
2022-08-27T19:39:32.569Z,68.65
2022-08-27T19:42:35.505Z,69.19
2022-08-27T19:45:39.850Z,69.10
2022-08-27T19:48:44.793Z,69.92
2022-08-27T19:51:49.080Z,70.23
2022-08-27T19:55:12.569Z,70.37
2022-08-27T19:58:17.579Z,70.74
2022-08-27T20:01:20.771Z,71.46
2022-08-27T20:04:23.970Z,71.03
2022-08-27T20:07:27.886Z,71.39
2022-08-27T20:10:36.470Z,70.51
2022-08-27T20:13:47.953Z,70.45
2022-08-27T20:16:55.599Z,71.30
2022-08-27T20:19:59.155Z,71.13
2022-08-27T20:23:08.335Z,71.85
2022-08-27T20:26:12.799Z,72.73
2022-08-27T20:29:32.222Z,72.87
2022-08-27T20:32:36.282Z,73.15
2022-08-27T20:35:39.765Z,73.58
2022-08-27T20:38:43.965Z,72.88
2022-08-27T20:41:47.071Z,73.18
2022-08-27T20:44:51.344Z,72.75
2022-08-27T20:47:57.688Z,72.51
2022-08-27T20:51:01.705Z,72.66
2022-08-27T20:54:05.788Z,72.89
2022-08-27T20:57:11.525Z,73.33
2022-08-27T21:00:22.896Z,72.95
2022-08-27T21:03:27.122Z,73.02
2022-08-27T21:06:33.388Z,73.31
2022-08-27T21:09:56.637Z,73.24
2022-08-27T21:13:04.513Z,73.87
2022-08-27T21:16:07.965Z,74.09
2022-08-27T21:19:11.079Z,74.42
2022-08-27T21:22:14.492Z,74.36
2022-08-27T21:25:17.884Z,75.21
2022-08-27T21:28:20.961Z,75.19
2022-08-27T21:31:25.296Z,75.95
2022-08-27T21:34:31.315Z,75.99
2022-08-27T21:37:35.001Z,75.94
2022-08-27T21:40:39.582Z,75.51
2022-08-27T21:43:42.997Z,74.70
2022-08-27T21:46:47.283Z,74.62
2022-08-27T21:49:50.778Z,74.67
2022-08-27T21:52:54.466Z,75.11
2022-08-27T21:55:57.543Z,74.45
2022-08-27T21:59:00.517Z,74.60
2022-08-27T22:02:18.116Z,74.62
2022-08-27T22:05:27.035Z,75.13
2022-08-27T22:08:30.000Z,74.29
2022-08-27T22:11:33.187Z,74.39
2022-08-27T22:14:37.447Z,74.71
2022-08-27T22:17:40.662Z,74.86
2022-08-27T22:20:45.127Z,74.68
2022-08-27T22:23:51.618Z,74.42
2022-08-27T22:26:54.897Z,74.47
2022-08-27T22:29:58.075Z,74.50
2022-08-27T22:33:01.251Z,74.73
2022-08-27T22:36:04.325Z,74.36
2022-08-27T22:39:07.301Z,74.22
2022-08-27T22:42:10.478Z,74.12
2022-08-27T22:45:17.854Z,74.21
2022-08-27T22:48:21.026Z,74.67
2022-08-27T22:51:24.099Z,74.67
2022-08-27T22:54:29.635Z,74.59
2022-08-27T22:57:32.811Z,74.60
2022-08-27T23:00:38.602Z,74.71
2022-08-27T23:03:42.365Z,74.71
2022-08-27T23:06:45.416Z,75.13
2022-08-27T23:09:48.547Z,75.00
2022-08-27T23:12:53.794Z,75.12
2022-08-27T23:15:57.023Z,75.09
2022-08-27T23:19:00.068Z,75.05
2022-08-27T23:22:07.049Z,74.79
2022-08-27T23:25:30.776Z,74.71
2022-08-27T23:28:34.067Z,74.91
2022-08-27T23:31:37.890Z,74.75
2022-08-27T23:34:40.920Z,74.91
2022-08-27T23:37:48.983Z,75.14
2022-08-27T23:40:53.516Z,75.50
2022-08-27T23:43:57.307Z,75.57
2022-08-27T23:47:01.404Z,75.50
2022-08-27T23:50:06.605Z,75.23
2022-08-27T23:53:10.388Z,74.86
2022-08-27T23:56:13.392Z,75.08
2022-08-27T23:59:18.042Z,75.34
